CheckWX is a tool to help pilots better visualize weather data.  It is not intended as a substitute for an official pre-flight weather briefing.

08:01:15 UTC

PAGS METAR
Gustavus Airport
Gustavus, Alaska, USA
Current

5 mins ago

PAGS 260756Z AUTO 33008KT 9SM -SN BKN022 OVC033 M01/M01 A2942 RMK AO2 UPE36SNB23E34B39 SLP961 P0001 T10061006 FZRANO
Observed
Jan-26 @ 07:56 UTC
Wind
  • 330° at 8 KTS
Visibility
9 SM
Flight Rules
MVFR
Conditions
Light Snow
Cloud Levels
  • Broken at 2,200' AGL
  • Overcast at 3,300' AGL
Temperature
-1°C / 30°F
Dewpoint
-1°C / 30°F
Humidity
100%
Altimeter
29.42" Hg
Pressure
996.32 hPa
Current Rain
0.01"
Previous

1 hour ago

PAGS 260656Z AUTO 33007KT 9SM UP BKN027 OVC033 M01/M01 A2943 RMK AO2 RAE23UPB23 SLP966 P0001 T10061011 FZRANO
Observed
Jan-26 @ 06:56 UTC
Wind
  • 330° at 7 KTS
Visibility
9 SM
Flight Rules
MVFR
Conditions
Unknown precipitation
Cloud Levels
  • Broken at 2,700' AGL
  • Overcast at 3,300' AGL
Temperature
-1°C / 30°F
Dewpoint
-1°C / 30°F
Humidity
100%
Altimeter
29.43" Hg
Pressure
996.62 hPa
Current Rain
0.01"
Previous

1 hour ago

PAGS 260633Z AUTO VRB06KT 10SM UP BKN029 OVC035 00/M01 A2943 RMK AO2 RAE23UPB23 P0001 FZRANO
Observed
Jan-26 @ 06:33 UTC
Wind
  • Variable at 6 KTS
Visibility
10 SM
Flight Rules
MVFR
Conditions
Unknown precipitation
Cloud Levels
  • Broken at 2,900' AGL
  • Overcast at 3,500' AGL
Temperature
C / 32°F
Dewpoint
-1°C / 30°F
Humidity
93%
Altimeter
29.43" Hg
Pressure
996.62 hPa
Current Rain
0.01"